avr
10

OUVERTURE DU CHAMPIONNAT EMX 125 EN ITALIE : PASCAL RAUCHENECKER S’OCCUPE DE TOUT

EMX 125 – Qualifying Race Group A – Classification
Pos Nr Rider Nat. Fed. Bike Time laps Diff. First Diff. Prev. Bestlaptime in lap Speed

1 911 Tixier, Jordi FRA FFM KTM 21:29.346 9 0:00.000 0:00.000 2:06.475 2 44.119
2 23 Bernardini, Samuele ITA FMI KTM 21:47.457 9 0:18.111 0:18.111 2:07.863 1 43.64
3 20 Olsen, Stefan DEN DMU Suzuki 21:51.934 9 0:22.588 0:04.477 2:08.658 2 43.371
4 711 Graulus, Damon BEL FMB KTM 22:29.394 9 1:00.048 0:37.460 2:12.379 1 42.152
5 148 Albers, Rene NED KNMV Yamaha 22:33.793 9 1:04.447 0:04.399 2:13.969 2 41.651
6 103 Bastemeijer, Donny NED KNMV Suzuki 22:35.206 9 1:05.860 0:01.413 2:12.024 5 42.265
7 44 Muratori, Francesco ITA FMI Suzuki 22:36.099 9 1:06.753 0:00.893 2:13.377 4 41.836
8 123 Dewulf, Jeffrey BEL FMB TM 22:41.395 9 1:12.049 0:05.296 2:13.215 8 41.887
9 222 Lacan, Jordan FRA FFM KTM 22:59.488 9 1:30.142 0:18.093 2:14.756 1 41.408
10 78 Ruzzi, Davide ITA FMI KTM 23:13.644 9 1:44.298 0:14.156 2:15.580 2 41.157
11 192 Cuppen, John NED KNMV Yamaha 23:16.962 9 1:47.616 0:03.318 2:16.562 1 40.861
12 95 Blömer, Nigel NED KNMV TM 23:18.147 9 1:48.801 0:01.185 2:17.207 2 40.668
13 174 Versluis, Dave NED KNMV KTM 23:19.961 9 1:50.615 0:01.814 2:17.007 2 40.728
14 194 Bakens, Robin BEL FMB Yamaha 23:21.430 9 1:52.084 0:01.469 2:17.575 4 40.56
15 201 Marchelli, Michele ITA FMI KTM 23:22.537 9 1:53.191 0:01.107 2:16.376 2 40.916
16 232 Johannessen, Lasse Faeste NOR NMF Yamaha 23:22.650 9 1:53.304 0:00.113 2:15.882 4 41.065
17 611 Cociu, Mihail MOL FMR Kawasaki 23:23.428 9 1:54.082 0:00.778 2:15.397 9 41.212
18 112 Rogozin, Semen RUS MFR KTM 23:32.488 9 2:03.142 0:09.060 2:13.193 1 41.894
19 531 Bizet, Nicolas FRA FFM KTM 23:33.210 9 2:03.864 0:00.722 2:17.183 3 40.676
20 51 Castro, Sergio ESP RFME TM 23:35.829 9 2:06.483 0:02.619 2:19.757 1 39.926
21 359 Zinetti, Nicolo ITA FMI KTM 23:38.118 9 2:08.772 0:02.289 2:17.948 3 40.45
22 116 Cohas, Pierre FRA FFM KTM 23:43.435 9 2:14.089 0:05.317 2:18.820 2 40.196
23 282 Volgin, Ivan RUS MFR Yamaha 23:47.832 9 2:18.486 0:04.397 2:19.964 4 39.867
24 55 Kleylein, Maximilian GER DMSB TM 21:37.491 8 1 lap 1 lap 2:21.123 2 39.54
25 510 Rus, Rok SLO AMZS Suzuki 22:07.971 8 1 lap 0:30.480 2:20.935 2 39.593
26 84 Sturiska, Janis LAT LAMSF Suzuki 23:38.914 8 1 lap 1:30.943 2:30.627 2 37.045
27 31 De Santis, Gianmarco ITA FMI Honda 23:44.830 8 1 lap 0:05.916 2:33.088 3 36.45
28 37 Tamagnini, Nicolo RSM FSM KTM 22:17.589 7 2 laps 1 lap 2:24.753 1 38.548
29 100 Vincenot – Marchal, Germain FRA FFM Kawasaki 17:09.774 6 3 laps 1 lap 2:15.554 1 41.164
30 41 Lobitz, Tim GER DMSB KTM 12:18.377 4 5 laps 2 laps 2:21.371 2 39.471

EMX 125 – Qualifying Race Group B – Classification
Pos Nr Rider Nat. Fed. Bike Time laps Diff. First Diff. Prev. Bestlaptime in lap Speed

1 76 Rauchenecker, Pascal AUT OeAMTC KTM 19:46.180 8 0:00.000 0:00.000 2:09.566 3 43.067
2 22 Ferrandis, Dylan FRA FFM Kawasaki 19:52.721 8 0:06.541 0:06.541 2:10.655 1 42.708
3 35 Lafont, Yohan FRA FFM Yamaha 19:55.393 8 0:09.213 0:02.672 2:11.286 6 42.503

4 119 Houghton, Ryan GBR ACU KTM 20:04.603 8 0:18.423 0:09.210 2:12.195 3 42.21
5 172 Van Iperen, Tom NED KNMV Yamaha 20:08.867 8 0:22.687 0:04.264 2:12.612 2 42.078
6 181 Janvier, Yerki BEL FMB TM 20:11.722 8 0:25.542 0:02.855 2:11.548 1 42.418
7 114 Booker, Jordan GBR ACU KTM 20:17.019 8 0:30.839 0:05.297 2:12.353 1 42.16
8 613 Chauveau, Jeremy FRA FFM Yamaha 20:17.427 8 0:31.247 0:00.408 2:12.143 1 42.227
9 195 Justs, Roberts LAT LAMSF Husqvarna 20:20.293 8 0:34.113 0:02.866 2:12.675 1 42.058
10 91 Seewer, Jeremy SUI FMS Suzuki 20:21.201 8 0:35.021 0:00.908 2:12.621 2 42.075
11 951 Aubin, Arnaud FRA FFM Yamaha 20:24.250 8 0:38.070 0:03.049 2:12.491 3 42.116
12 142 Paturel, Benoit FRA FFM Yamaha 20:24.995 8 0:38.815 0:00.745 2:12.660 2 42.062

13 99 Ciucci, Dawid ITA FMI KTM 20:25.259 8 0:39.079 0:00.264 2:10.726 3 42.685
14 102 Plessers, Mathias BEL FMB KTM 20:30.695 8 0:44.515 0:05.436 2:14.361 2 41.53
15 43 Moroni, Luca ITA FMI KTM 20:37.685 8 0:51.505 0:06.990 2:12.344 1 42.163
16 105 Jönsson, Jesper SWE SVEMO Suzuki 20:41.993 8 0:55.813 0:04.308 2:13.276 2 41.868
17 79 Corneth, Jaap NED KNMV KTM 21:08.563 8 1:22.383 0:26.570 2:16.696 3 40.821
18 47 Jönsson, Pontus SWE SVEMO Suzuki 21:09.699 8 1:23.519 0:01.136 2:18.252 3 40.361
19 606 Degousee, Arnaud FRA FFM TM 21:12.345 8 1:26.165 0:02.646 2:16.535 3 40.869
20 300 Golovkin, Viacheslav FRA FFM Yamaha 21:30.033 8 1:43.853 0:17.688 2:19.945 3 39.873

21 515 Piatek, Jakub POL PZM Yamaha 21:37.485 8 1:51.305 0:07.452 2:21.323 8 39.484
22 193 Brackman, Wietse BEL FMB Yamaha 21:37.901 8 1:51.721 0:00.416 2:14.780 2 41.401
23 54 Hummel, Marco GER DMSB KTM 21:44.143 8 1:57.963 0:06.242 2:21.625 1 39.4
24 505 Piatek, Bartosz POL PZM Yamaha 21:51.262 8 2:05.082 0:07.119 2:23.195 2 38.968
25 40 Zecchina, Simone ITA FMI Suzuki 19:12.165 7 1 lap 1 lap 2:13.074 3 41.932
26 226 Di Marziantonio, Gianluca ITA FMI Honda 20:45.769 7 1 lap 1:33.604 2:27.071 2 37.941
27 712 Neubauer, Danny GER DMSB Kawasaki 21:47.100 7 1 lap 1:01.331 2:19.564 1 39.982
28 250 Fura, Richard FRA FFM Yamaha 15:25.555 6 2 laps 1 lap 2:09.619 4 43.049
29 25 Karner, Philipp AUT OeAMTC KTM 16:36.632 5 3 laps 1 lap 2:18.171 1 40.385
30 211 Jaulin, Sulivan FRA FFM Yamaha 4:55.985 1 7 laps 4 laps 2:46.511 1 33.511

A voir aussi :

Un commentaire sur “OUVERTURE DU CHAMPIONNAT EMX 125 EN ITALIE : PASCAL RAUCHENECKER S’OCCUPE DE TOUT”

  1. didier GWADA dit :

    Richard FURA est tombé et s’est blessé aux deux jambes, lors de la manche de qualification, il est actuellement à l’hopital. J’espère que ce n’est pas trop grave.
    après un départ moyen (14) , richard remonte en 4 tours à la 3ème place,il a chuté dans le 7 ème tour, alors qu’il venait de signer le meilleurs chrono et qu’il était sur le point de dépasser Dylan FERRANDIS.
    reviens-nous vite, Riri !